createdAt,value
2022-10-16T00:01:19.142Z,82.65
2022-10-16T00:03:48.199Z,82.55
2022-10-16T00:06:19.053Z,83.09
2022-10-16T00:08:47.717Z,82.74
2022-10-16T00:11:17.669Z,82.96
2022-10-16T00:13:46.393Z,81.90
2022-10-16T00:16:15.387Z,81.63
2022-10-16T00:18:43.730Z,82.18
2022-10-16T00:21:13.401Z,82.84
2022-10-16T00:23:42.727Z,83.19
2022-10-16T00:26:13.693Z,81.88
2022-10-16T00:28:42.390Z,81.99
2022-10-16T00:31:11.661Z,81.56
2022-10-16T00:33:41.158Z,81.16
2022-10-16T00:36:11.176Z,80.59
2022-10-16T00:38:39.698Z,80.26
2022-10-16T00:41:10.173Z,80.67
2022-10-16T00:43:41.073Z,80.50
2022-10-16T00:46:15.742Z,81.12
2022-10-16T00:48:45.353Z,81.30
2022-10-16T00:51:13.278Z,80.90
2022-10-16T00:53:41.124Z,80.57
2022-10-16T00:56:10.313Z,80.77
2022-10-16T00:58:38.082Z,81.29
2022-10-16T01:01:05.828Z,82.11
2022-10-16T01:03:35.917Z,82.02
2022-10-16T01:06:20.142Z,81.26
2022-10-16T01:08:54.629Z,82.34
2022-10-16T01:11:27.618Z,82.24
2022-10-16T01:13:57.480Z,81.09
2022-10-16T01:16:31.401Z,82.16
2022-10-16T01:19:03.649Z,82.14
2022-10-16T01:21:34.006Z,81.86
2022-10-16T01:24:07.804Z,82.03
2022-10-16T01:26:50.461Z,82.01
2022-10-16T01:29:21.108Z,82.56
2022-10-16T01:31:51.624Z,81.27
2022-10-16T01:34:23.477Z,81.06
2022-10-16T01:36:53.809Z,81.04
2022-10-16T01:39:23.638Z,80.76
2022-10-16T01:41:55.914Z,80.99
2022-10-16T01:44:28.103Z,81.46
2022-10-16T01:46:56.312Z,81.73
2022-10-16T01:49:25.509Z,81.11
2022-10-16T01:51:56.525Z,80.54
2022-10-16T01:54:25.609Z,80.26
2022-10-16T01:56:53.622Z,80.84
2022-10-16T01:59:23.463Z,81.53
2022-10-16T02:01:56.990Z,81.54
2022-10-16T02:04:28.749Z,82.07
2022-10-16T02:06:57.037Z,82.88
2022-10-16T02:09:24.853Z,83.42
2022-10-16T02:11:54.887Z,83.40
2022-10-16T02:14:25.583Z,81.81
2022-10-16T02:16:54.701Z,81.34
2022-10-16T02:19:23.347Z,80.81
2022-10-16T02:21:53.356Z,79.85
2022-10-16T02:24:26.347Z,79.47
2022-10-16T02:27:00.786Z,79.57
2022-10-16T02:29:29.082Z,80.50
2022-10-16T02:32:00.861Z,81.47
2022-10-16T02:34:29.752Z,81.86
2022-10-16T02:36:58.369Z,82.00
2022-10-16T02:39:26.520Z,80.89
2022-10-16T02:41:54.229Z,79.97
2022-10-16T02:44:21.964Z,79.05
2022-10-16T02:46:49.713Z,78.63
2022-10-16T02:49:19.005Z,78.91
2022-10-16T02:51:46.792Z,78.73
2022-10-16T02:54:14.658Z,78.32
2022-10-16T02:56:42.366Z,78.50
2022-10-16T02:59:10.180Z,77.17
2022-10-16T03:01:37.942Z,77.45
2022-10-16T03:04:05.966Z,76.82
2022-10-16T03:06:35.118Z,76.52
2022-10-16T03:09:02.851Z,76.09
2022-10-16T03:11:30.593Z,76.14
2022-10-16T03:13:58.319Z,76.14
2022-10-16T03:16:26.019Z,77.33
2022-10-16T03:18:53.756Z,77.83
2022-10-16T03:21:21.501Z,78.29
2022-10-16T03:23:50.603Z,77.93
2022-10-16T03:26:18.373Z,77.93
2022-10-16T03:28:46.144Z,77.95
2022-10-16T03:31:13.904Z,77.50
2022-10-16T03:33:41.673Z,76.80
2022-10-16T03:36:09.376Z,76.59
2022-10-16T03:38:37.155Z,77.04
2022-10-16T03:41:08.618Z,76.86
2022-10-16T03:43:36.868Z,76.58
2022-10-16T03:46:04.726Z,76.40
2022-10-16T03:48:33.073Z,77.04
2022-10-16T03:51:00.979Z,77.92
2022-10-16T03:53:28.697Z,77.83
2022-10-16T03:55:56.474Z,78.57
2022-10-16T03:58:25.797Z,79.04
2022-10-16T04:00:53.559Z,79.86
2022-10-16T04:03:22.314Z,78.99
2022-10-16T04:05:50.234Z,78.64
2022-10-16T04:08:18.161Z,79.28
2022-10-16T04:10:46.236Z,78.44
2022-10-16T04:13:14.380Z,78.57
2022-10-16T04:15:43.624Z,79.59
2022-10-16T04:18:11.352Z,79.66
2022-10-16T04:20:39.294Z,78.92
2022-10-16T04:23:07.091Z,78.44
2022-10-16T04:25:34.855Z,78.82
2022-10-16T04:28:02.671Z,79.37
2022-10-16T04:30:30.446Z,79.32
2022-10-16T04:35:32.186Z,79.81
2022-10-16T04:38:00.085Z,78.70
2022-10-16T04:40:27.817Z,78.09
2022-10-16T04:42:55.681Z,77.86
2022-10-16T04:45:23.409Z,78.11
2022-10-16T04:47:51.176Z,78.39
2022-10-16T04:50:20.289Z,77.73
2022-10-16T04:53:02.807Z,77.95
2022-10-16T04:55:31.330Z,78.19
2022-10-16T04:57:59.173Z,78.47
2022-10-16T05:00:26.999Z,78.75
2022-10-16T05:02:55.108Z,77.95
2022-10-16T05:05:24.288Z,77.27
2022-10-16T05:07:52.081Z,76.45
2022-10-16T05:10:19.806Z,76.03
2022-10-16T05:12:48.600Z,76.24
2022-10-16T05:15:16.497Z,76.73
2022-10-16T05:17:44.877Z,76.56
2022-10-16T05:20:12.840Z,76.72
2022-10-16T05:22:41.956Z,77.66
2022-10-16T05:25:10.141Z,77.37
2022-10-16T05:27:38.091Z,77.96
2022-10-16T05:30:08.633Z,77.80
2022-10-16T05:32:39.293Z,79.01
2022-10-16T05:35:10.152Z,79.21
2022-10-16T05:37:41.767Z,78.29
2022-10-16T05:40:10.617Z,78.38
2022-10-16T05:42:38.446Z,78.58
2022-10-16T05:45:07.573Z,79.99
2022-10-16T05:47:35.329Z,80.14
2022-10-16T05:50:05.036Z,80.27
2022-10-16T05:52:32.794Z,80.41
2022-10-16T05:55:01.912Z,78.78
2022-10-16T05:57:29.883Z,78.96
2022-10-16T05:59:57.676Z,78.97
2022-10-16T06:02:25.418Z,78.81
2022-10-16T06:04:54.069Z,78.32
2022-10-16T06:07:22.179Z,78.25
2022-10-16T06:09:50.677Z,77.61
2022-10-16T06:12:20.265Z,78.32
2022-10-16T06:14:48.348Z,79.48
2022-10-16T06:17:16.409Z,79.32
2022-10-16T06:19:44.328Z,79.20
2022-10-16T06:22:12.152Z,79.28
2022-10-16T06:24:39.927Z,77.83
2022-10-16T06:27:08.176Z,77.62
2022-10-16T06:29:37.322Z,75.97
2022-10-16T06:32:05.346Z,75.64
2022-10-16T06:34:33.094Z,74.66
2022-10-16T06:37:01.006Z,74.66
2022-10-16T06:39:28.730Z,74.85
2022-10-16T06:41:56.496Z,75.32
2022-10-16T06:44:27.593Z,76.55
2022-10-16T06:46:56.818Z,77.16
2022-10-16T06:49:24.803Z,76.64
2022-10-16T06:51:52.523Z,78.06
2022-10-16T06:54:20.294Z,77.15
2022-10-16T06:56:47.969Z,77.28
2022-10-16T06:59:15.706Z,76.51
2022-10-16T07:01:43.461Z,75.51
2022-10-16T07:04:12.595Z,77.09
2022-10-16T07:06:40.512Z,77.25
2022-10-16T07:09:11.167Z,77.14
2022-10-16T07:11:39.681Z,76.82
2022-10-16T07:14:11.164Z,77.09
2022-10-16T07:16:38.900Z,76.78
2022-10-16T07:19:06.681Z,75.91
2022-10-16T07:21:37.355Z,75.03
2022-10-16T07:24:07.275Z,74.50
2022-10-16T07:26:36.986Z,75.53
2022-10-16T07:29:05.310Z,76.24
2022-10-16T07:31:33.263Z,76.71
2022-10-16T07:34:01.826Z,74.82
2022-10-16T07:36:29.801Z,74.59
2022-10-16T07:39:00.274Z,74.61
2022-10-16T07:41:28.957Z,76.45
2022-10-16T07:43:57.420Z,76.54
2022-10-16T07:46:25.390Z,76.75
2022-10-16T07:48:53.227Z,76.89
2022-10-16T07:51:23.412Z,76.51
2022-10-16T07:53:52.022Z,75.96
2022-10-16T07:56:21.929Z,75.04
2022-10-16T07:58:50.685Z,76.16
2022-10-16T08:01:19.122Z,76.67
2022-10-16T08:03:48.513Z,75.53
2022-10-16T08:06:16.796Z,75.50
2022-10-16T08:08:44.874Z,75.54
2022-10-16T08:11:12.811Z,75.30
2022-10-16T08:13:41.916Z,75.13
2022-10-16T08:16:10.826Z,73.66
2022-10-16T08:18:39.561Z,72.53
2022-10-16T08:21:08.806Z,72.32
2022-10-16T08:23:36.741Z,72.20
2022-10-16T08:26:05.827Z,71.68
2022-10-16T08:28:33.791Z,71.54
2022-10-16T08:31:10.437Z,71.78
2022-10-16T08:33:38.686Z,69.92
2022-10-16T08:36:07.568Z,69.90
2022-10-16T08:38:35.678Z,69.83
2022-10-16T08:41:20.038Z,68.08
2022-10-16T08:44:18.771Z,68.20
2022-10-16T08:46:51.708Z,68.57
2022-10-16T08:49:19.772Z,67.62
2022-10-16T08:51:50.378Z,65.62
2022-10-16T08:54:28.370Z,65.92
2022-10-16T08:56:56.805Z,65.63
2022-10-16T08:59:24.589Z,63.95
2022-10-16T09:01:54.065Z,62.71
2022-10-16T09:04:56.835Z,63.23
2022-10-16T09:07:31.003Z,63.07
2022-10-16T09:10:09.542Z,62.87
2022-10-16T09:12:43.397Z,60.42
2022-10-16T09:15:23.267Z,60.52
2022-10-16T09:17:56.998Z,61.29
2022-10-16T09:20:37.476Z,60.30
2022-10-16T09:23:20.052Z,58.68
2022-10-16T09:25:54.300Z,59.06
2022-10-16T09:28:22.164Z,58.87
2022-10-16T09:30:50.843Z,57.84
2022-10-16T09:33:21.714Z,56.34
2022-10-16T09:35:51.189Z,57.28
2022-10-16T09:38:29.194Z,56.17
2022-10-16T09:41:02.478Z,55.32
2022-10-16T09:43:36.159Z,54.96
2022-10-16T09:46:05.406Z,56.43
2022-10-16T09:48:38.835Z,55.67
2022-10-16T09:51:08.954Z,55.52
2022-10-16T09:53:44.043Z,55.78
2022-10-16T09:56:14.735Z,55.92
2022-10-16T09:58:46.426Z,55.74
2022-10-16T10:01:16.499Z,55.14
2022-10-16T10:03:46.468Z,54.70
2022-10-16T10:06:33.162Z,54.82
2022-10-16T10:09:07.932Z,54.61
2022-10-16T10:11:40.863Z,53.61
2022-10-16T10:14:37.086Z,54.08
2022-10-16T10:17:13.130Z,54.05
2022-10-16T10:19:43.793Z,54.66
2022-10-16T10:22:41.782Z,54.69
2022-10-16T10:25:39.218Z,57.10
2022-10-16T10:28:30.072Z,56.07
2022-10-16T10:31:04.578Z,55.92
2022-10-16T10:33:40.630Z,55.65
2022-10-16T10:36:16.840Z,52.63
2022-10-16T10:38:49.881Z,52.72
2022-10-16T10:41:43.848Z,53.16
2022-10-16T10:44:17.917Z,49.36
2022-10-16T10:46:51.338Z,49.27
2022-10-16T10:49:31.957Z,47.15
2022-10-16T10:52:07.717Z,48.70
2022-10-16T10:54:40.296Z,48.55
2022-10-16T10:57:12.658Z,49.46
2022-10-16T10:59:57.156Z,49.88
2022-10-16T11:02:27.714Z,47.62
2022-10-16T11:05:17.448Z,48.02
2022-10-16T11:07:50.739Z,48.90
2022-10-16T11:10:21.512Z,49.99
2022-10-16T11:12:53.594Z,49.74
2022-10-16T11:15:24.036Z,49.23
2022-10-16T11:17:55.018Z,49.07
2022-10-16T11:20:26.800Z,49.79
2022-10-16T11:22:58.929Z,49.05
2022-10-16T11:25:29.196Z,48.17
2022-10-16T11:28:00.317Z,47.48
2022-10-16T11:30:29.869Z,48.17
2022-10-16T11:33:16.891Z,48.41
2022-10-16T11:35:50.000Z,47.42
2022-10-16T11:38:26.464Z,48.02
2022-10-16T11:40:58.080Z,47.76
2022-10-16T11:43:29.291Z,48.23
2022-10-16T11:45:58.415Z,48.28
2022-10-16T11:48:29.932Z,47.61
2022-10-16T11:51:00.656Z,48.72
2022-10-16T11:53:41.024Z,48.36
2022-10-16T11:56:08.927Z,47.53
2022-10-16T11:58:40.570Z,47.73
2022-10-16T12:01:19.396Z,47.20
2022-10-16T12:03:51.611Z,46.57
2022-10-16T12:06:27.641Z,45.30
2022-10-16T12:08:57.480Z,43.66
2022-10-16T12:11:33.108Z,44.92
2022-10-16T12:14:09.790Z,46.93
2022-10-16T12:19:15.672Z,46.38
2022-10-16T12:21:44.034Z,45.86
2022-10-16T12:24:24.446Z,45.61
2022-10-16T12:26:54.361Z,45.04
2022-10-16T12:29:28.600Z,45.91
2022-10-16T12:31:58.356Z,43.73
2022-10-16T12:34:30.466Z,42.68
2022-10-16T12:36:58.812Z,40.59
2022-10-16T12:39:30.345Z,42.60
2022-10-16T12:42:05.842Z,45.09
2022-10-16T12:44:37.642Z,44.67
2022-10-16T12:47:07.559Z,44.27
2022-10-16T12:49:40.793Z,41.20
2022-10-16T12:52:27.770Z,41.38
2022-10-16T12:55:01.694Z,41.71
2022-10-16T12:57:40.097Z,39.36
2022-10-16T13:00:16.059Z,41.07
2022-10-16T13:03:14.441Z,41.18
2022-10-16T13:05:51.141Z,41.93
2022-10-16T13:08:37.692Z,42.08
2022-10-16T13:11:10.790Z,41.41
2022-10-16T13:13:49.076Z,41.74
2022-10-16T13:16:22.906Z,41.33
2022-10-16T13:19:00.069Z,40.86
2022-10-16T13:21:35.877Z,40.10
2022-10-16T13:24:13.012Z,39.67
2022-10-16T13:26:48.126Z,40.83
2022-10-16T13:29:16.497Z,43.43
2022-10-16T13:31:45.324Z,44.06
2022-10-16T13:34:15.980Z,43.78
2022-10-16T13:36:48.765Z,43.50
2022-10-16T13:39:18.865Z,42.60
2022-10-16T13:41:48.684Z,41.75
2022-10-16T13:44:18.556Z,41.87
2022-10-16T13:46:46.302Z,44.10
2022-10-16T13:49:16.295Z,43.20
2022-10-16T13:51:56.250Z,43.08
2022-10-16T13:54:24.128Z,40.26
2022-10-16T13:57:03.328Z,36.90
2022-10-16T13:59:38.630Z,36.07
2022-10-16T14:02:16.660Z,36.71
2022-10-16T14:04:44.486Z,36.49
2022-10-16T14:07:20.613Z,36.29
2022-10-16T14:09:50.570Z,38.68
2022-10-16T14:12:21.904Z,38.89
2022-10-16T14:14:53.763Z,39.89
2022-10-16T14:17:25.125Z,40.74
2022-10-16T14:19:59.557Z,39.90
2022-10-16T14:22:33.057Z,39.97
2022-10-16T14:25:01.510Z,40.53
2022-10-16T14:27:35.326Z,39.36
2022-10-16T14:30:17.093Z,38.84
2022-10-16T14:32:55.920Z,37.77
2022-10-16T14:35:25.846Z,37.17
2022-10-16T14:37:54.642Z,38.24
2022-10-16T14:40:25.806Z,41.12
2022-10-16T14:42:54.955Z,42.99
2022-10-16T14:45:23.575Z,42.48
2022-10-16T14:47:52.980Z,41.97
2022-10-16T14:50:20.721Z,42.07
2022-10-16T14:52:48.493Z,43.54
2022-10-16T14:55:16.588Z,43.13
2022-10-16T14:57:45.261Z,42.69
2022-10-16T15:00:19.026Z,42.56
2022-10-16T15:02:47.233Z,41.87
2022-10-16T15:05:18.172Z,41.90
2022-10-16T15:07:46.358Z,43.09
2022-10-16T15:10:14.314Z,44.87
2022-10-16T15:12:42.179Z,46.17
2022-10-16T15:15:37.395Z,45.55
2022-10-16T15:18:05.665Z,45.27
2022-10-16T15:20:35.288Z,44.84
2022-10-16T15:23:03.550Z,45.11
2022-10-16T15:25:40.571Z,45.30
2022-10-16T15:28:08.858Z,45.46
2022-10-16T15:30:38.921Z,46.28
2022-10-16T15:33:10.766Z,46.41
2022-10-16T15:35:38.545Z,46.27
2022-10-16T15:38:06.275Z,46.68
2022-10-16T15:40:34.005Z,46.35
2022-10-16T15:43:01.774Z,47.76
2022-10-16T15:45:29.499Z,48.31
2022-10-16T15:47:58.592Z,47.89
2022-10-16T15:50:26.398Z,48.78
2022-10-16T15:52:54.508Z,49.79
2022-10-16T15:55:22.225Z,50.75
2022-10-16T15:57:50.121Z,50.92
2022-10-16T16:00:21.690Z,50.90
2022-10-16T16:02:53.533Z,52.09
2022-10-16T16:05:23.334Z,53.24
2022-10-16T16:07:51.780Z,53.51
2022-10-16T16:10:21.506Z,53.70
2022-10-16T16:12:52.893Z,54.22
2022-10-16T16:15:21.565Z,54.32
2022-10-16T16:17:49.393Z,55.25
2022-10-16T16:20:17.375Z,55.77
2022-10-16T16:22:46.515Z,55.70
2022-10-16T16:25:14.311Z,54.79
2022-10-16T16:27:42.078Z,54.75
2022-10-16T16:30:16.823Z,54.88
2022-10-16T16:32:47.518Z,55.40
2022-10-16T16:35:15.365Z,55.38
2022-10-16T16:37:43.126Z,55.69
2022-10-16T16:40:12.617Z,56.46
2022-10-16T16:42:40.421Z,56.75
2022-10-16T16:45:09.455Z,56.90
2022-10-16T16:47:37.237Z,56.50
2022-10-16T16:50:05.975Z,56.44
2022-10-16T16:52:33.722Z,56.81
2022-10-16T16:55:02.121Z,57.40
2022-10-16T16:57:31.299Z,57.93
2022-10-16T16:59:59.079Z,58.42
2022-10-16T17:02:26.953Z,58.33
2022-10-16T17:04:54.730Z,58.37
2022-10-16T17:07:24.354Z,58.33
2022-10-16T17:09:52.214Z,58.88
2022-10-16T17:12:20.210Z,60.06
2022-10-16T17:14:49.352Z,60.63
2022-10-16T17:17:17.124Z,60.84
2022-10-16T17:19:44.882Z,61.04
2022-10-16T17:22:12.649Z,61.51
2022-10-16T17:24:40.471Z,61.76
2022-10-16T17:27:08.233Z,62.26
2022-10-16T17:29:35.917Z,62.72
2022-10-16T17:32:05.072Z,62.64
2022-10-16T17:34:32.802Z,63.22
2022-10-16T17:37:00.577Z,63.79
2022-10-16T17:39:28.551Z,64.18
2022-10-16T17:41:56.805Z,64.04
2022-10-16T17:44:24.735Z,64.15
2022-10-16T17:46:53.930Z,64.10
2022-10-16T17:51:56.233Z,64.22
2022-10-16T17:54:23.934Z,63.72
2022-10-16T17:56:51.640Z,63.46
2022-10-16T17:59:22.871Z,63.71
2022-10-16T18:01:50.691Z,63.87
2022-10-16T18:04:18.911Z,64.29
2022-10-16T18:06:48.360Z,64.66
2022-10-16T18:09:18.463Z,64.94
2022-10-16T18:11:47.608Z,64.84
2022-10-16T18:14:16.069Z,64.75
2022-10-16T18:16:44.232Z,64.77
2022-10-16T18:19:12.833Z,64.62
2022-10-16T18:21:41.250Z,63.90
2022-10-16T18:24:10.836Z,63.86
2022-10-16T18:26:38.628Z,64.20
2022-10-16T18:29:06.657Z,64.71
2022-10-16T18:31:37.827Z,65.66
2022-10-16T18:34:08.351Z,65.88
2022-10-16T18:36:36.954Z,65.83
2022-10-16T18:39:09.360Z,65.72
2022-10-16T18:41:39.461Z,65.74
2022-10-16T18:44:08.166Z,65.38
2022-10-16T18:46:35.925Z,65.52
2022-10-16T18:49:04.778Z,65.41
2022-10-16T18:51:34.373Z,65.50
2022-10-16T18:54:05.488Z,65.72
2022-10-16T18:56:33.349Z,65.76
2022-10-16T18:59:04.902Z,65.78
2022-10-16T19:01:35.034Z,65.18
2022-10-16T19:04:04.329Z,65.17
2022-10-16T19:06:35.027Z,65.36
2022-10-16T19:09:02.909Z,65.39
2022-10-16T19:11:31.265Z,65.47
2022-10-16T19:13:59.138Z,65.96
2022-10-16T19:16:29.797Z,65.84
2022-10-16T19:18:58.949Z,65.66
2022-10-16T19:21:28.052Z,66.04
2022-10-16T19:23:57.011Z,66.06
2022-10-16T19:26:25.635Z,66.52
2022-10-16T19:28:54.277Z,67.62
2022-10-16T19:31:23.256Z,69.41
2022-10-16T19:33:54.304Z,71.89
2022-10-16T19:36:24.337Z,75.31
2022-10-16T19:38:54.975Z,77.60
2022-10-16T19:41:23.647Z,79.38
2022-10-16T19:43:51.427Z,80.22
2022-10-16T19:46:20.755Z,80.04
2022-10-16T19:48:49.021Z,81.46
2022-10-16T19:51:19.569Z,82.15
2022-10-16T19:53:47.982Z,81.67
2022-10-16T19:56:17.678Z,82.66
2022-10-16T19:58:46.447Z,82.57
2022-10-16T20:01:15.655Z,82.74
2022-10-16T20:03:44.378Z,83.15
2022-10-16T20:06:12.786Z,83.46
2022-10-16T20:08:44.334Z,84.68
2022-10-16T20:11:14.021Z,84.78
2022-10-16T20:13:42.549Z,84.51
2022-10-16T20:16:11.917Z,84.51
2022-10-16T20:18:39.750Z,84.92
2022-10-16T20:21:10.874Z,84.42
2022-10-16T20:23:38.780Z,84.92
2022-10-16T20:26:08.259Z,84.80
2022-10-16T20:28:36.083Z,84.38
2022-10-16T20:31:07.893Z,83.59
2022-10-16T20:33:35.677Z,82.97
2022-10-16T20:36:03.495Z,83.47
2022-10-16T20:38:31.277Z,83.44
2022-10-16T20:41:04.513Z,83.69
2022-10-16T20:43:33.788Z,83.32
2022-10-16T20:46:02.677Z,83.34
2022-10-16T20:48:30.385Z,84.42
2022-10-16T20:50:59.928Z,84.51
2022-10-16T20:53:28.778Z,84.13
2022-10-16T20:55:56.549Z,84.10
2022-10-16T20:58:24.298Z,83.60
2022-10-16T21:00:53.463Z,84.40
2022-10-16T21:03:21.382Z,84.03
2022-10-16T21:05:49.183Z,84.38
2022-10-16T21:08:17.035Z,84.61
2022-10-16T21:10:45.061Z,84.75
2022-10-16T21:13:12.814Z,84.90
2022-10-16T21:15:40.601Z,84.86
2022-10-16T21:18:09.709Z,84.76
2022-10-16T21:20:37.527Z,84.40
2022-10-16T21:23:05.287Z,84.61
2022-10-16T21:25:33.070Z,84.56
2022-10-16T21:28:00.848Z,84.36
2022-10-16T21:30:28.651Z,84.03
2022-10-16T21:32:56.451Z,84.28
2022-10-16T21:35:25.778Z,84.68
2022-10-16T21:37:53.646Z,85.01
2022-10-16T21:40:21.365Z,85.52
2022-10-16T21:42:49.244Z,85.38
2022-10-16T21:45:17.070Z,85.22
2022-10-16T21:47:44.844Z,85.02
2022-10-16T21:50:12.641Z,84.47
2022-10-16T21:52:41.946Z,84.64
2022-10-16T21:55:10.938Z,84.54
2022-10-16T21:57:39.199Z,84.27
2022-10-16T22:00:09.703Z,84.65
2022-10-16T22:02:37.584Z,84.96
2022-10-16T22:05:05.999Z,85.05
2022-10-16T22:07:33.846Z,84.87
2022-10-16T22:10:03.122Z,85.31
2022-10-16T22:12:31.347Z,85.60
2022-10-16T22:14:59.234Z,85.07
2022-10-16T22:17:27.328Z,85.19
2022-10-16T22:19:55.488Z,86.01
2022-10-16T22:22:23.302Z,86.17
2022-10-16T22:24:51.149Z,86.91
2022-10-16T22:27:20.517Z,85.99
2022-10-16T22:29:51.856Z,85.61
2022-10-16T22:32:20.024Z,85.88
2022-10-16T22:34:48.086Z,86.27
2022-10-16T22:37:16.357Z,85.44
2022-10-16T22:39:44.238Z,85.25
2022-10-16T22:42:12.070Z,85.72
2022-10-16T22:44:41.633Z,85.50
2022-10-16T22:47:09.561Z,85.10
2022-10-16T22:49:37.532Z,85.56
2022-10-16T22:52:05.699Z,85.84
2022-10-16T22:54:33.572Z,85.48
2022-10-16T22:57:01.407Z,85.15
2022-10-16T22:59:29.261Z,84.93
2022-10-16T23:01:58.510Z,85.61
2022-10-16T23:04:26.450Z,85.66
2022-10-16T23:06:54.297Z,86.05
2022-10-16T23:09:22.229Z,86.52
2022-10-16T23:11:50.039Z,86.58
2022-10-16T23:14:21.170Z,86.65
2022-10-16T23:16:49.079Z,87.29
2022-10-16T23:19:18.356Z,87.58
2022-10-16T23:21:46.221Z,88.34
2022-10-16T23:24:14.067Z,88.36
2022-10-16T23:26:41.822Z,88.27
2022-10-16T23:29:10.807Z,88.11
2022-10-16T23:31:38.744Z,87.61
2022-10-16T23:34:06.599Z,87.66
2022-10-16T23:36:35.861Z,87.46
2022-10-16T23:39:03.780Z,87.72
2022-10-16T23:41:31.617Z,87.21
2022-10-16T23:43:59.512Z,87.00
2022-10-16T23:46:27.329Z,87.63
2022-10-16T23:48:55.301Z,88.05
2022-10-16T23:51:23.285Z,88.22
2022-10-16T23:53:53.069Z,87.21
2022-10-16T23:56:21.251Z,87.47
2022-10-16T23:58:49.197Z,87.25
